createdAt,value
2019-06-15T00:01:33.089Z,33.75
2019-06-15T00:03:59.353Z,33.65
2019-06-15T00:06:25.540Z,35.01
2019-06-15T00:08:51.844Z,35.43
2019-06-15T00:11:17.994Z,35.13
2019-06-15T00:13:44.164Z,35.05
2019-06-15T00:16:10.360Z,35.47
2019-06-15T00:18:36.522Z,36.50
2019-06-15T00:21:02.796Z,36.81
2019-06-15T00:23:29.013Z,36.48
2019-06-15T00:25:55.257Z,35.20
2019-06-15T00:28:21.413Z,34.77
2019-06-15T00:30:47.820Z,34.49
2019-06-15T00:33:14.008Z,34.05
2019-06-15T00:35:40.519Z,34.27
2019-06-15T00:38:06.746Z,34.48
2019-06-15T00:40:33.000Z,33.99
2019-06-15T00:42:59.156Z,33.81
2019-06-15T00:45:25.371Z,33.70
2019-06-15T00:47:51.541Z,34.06
2019-06-15T00:50:17.762Z,34.37
2019-06-15T00:52:43.969Z,34.48
2019-06-15T00:55:10.132Z,34.38
2019-06-15T00:57:36.302Z,35.18
2019-06-15T01:00:06.429Z,34.97
2019-06-15T01:02:32.673Z,35.03
2019-06-15T01:04:58.853Z,35.05
2019-06-15T01:07:25.173Z,34.61
2019-06-15T01:09:51.331Z,34.73
2019-06-15T01:12:17.578Z,34.92
2019-06-15T01:14:43.791Z,34.62
2019-06-15T01:17:09.943Z,34.26
2019-06-15T01:19:36.127Z,34.35
2019-06-15T01:22:02.326Z,34.35
2019-06-15T01:24:28.488Z,34.99
2019-06-15T01:26:54.656Z,34.83
2019-06-15T01:29:20.885Z,34.69
2019-06-15T01:31:47.165Z,34.34
2019-06-15T01:34:13.325Z,34.98
2019-06-15T01:36:39.536Z,35.21
2019-06-15T01:39:05.803Z,34.91
2019-06-15T01:41:31.960Z,35.18
2019-06-15T01:43:58.192Z,35.72
2019-06-15T01:46:24.363Z,35.12
2019-06-15T01:48:50.518Z,35.07
2019-06-15T01:51:16.829Z,35.73
2019-06-15T01:53:43.023Z,35.10
2019-06-15T01:56:09.183Z,34.95
2019-06-15T01:58:35.399Z,35.53
2019-06-15T02:01:01.579Z,34.84
2019-06-15T02:03:27.745Z,35.06
2019-06-15T02:05:53.973Z,35.10
2019-06-15T02:08:20.173Z,35.55
2019-06-15T02:10:46.330Z,35.09
2019-06-15T02:13:18.233Z,37.21
2019-06-15T02:15:44.377Z,37.02
2019-06-15T02:18:10.559Z,36.77
2019-06-15T02:20:36.768Z,36.70
2019-06-15T02:23:03.023Z,36.41
2019-06-15T02:25:35.822Z,35.71
2019-06-15T02:27:58.216Z,35.38
2019-06-15T02:30:26.284Z,35.42
2019-06-15T02:32:53.282Z,35.41
2019-06-15T02:35:19.577Z,36.15
2019-06-15T02:37:45.732Z,36.03
2019-06-15T02:40:12.207Z,37.80
2019-06-15T02:42:38.411Z,37.88
2019-06-15T02:45:05.789Z,37.67
2019-06-15T02:47:31.945Z,36.59
2019-06-15T02:49:58.143Z,37.10
2019-06-15T02:52:24.331Z,36.45
2019-06-15T02:54:50.486Z,37.36
2019-06-15T02:57:16.690Z,35.62
2019-06-15T02:59:42.863Z,34.95
2019-06-15T03:02:09.015Z,35.70
2019-06-15T03:04:35.224Z,35.62
2019-06-15T03:07:01.509Z,36.17
2019-06-15T03:09:27.682Z,36.08
2019-06-15T03:11:53.863Z,36.35
2019-06-15T03:14:21.050Z,35.71
2019-06-15T03:16:47.203Z,34.81
2019-06-15T03:19:13.418Z,34.73
2019-06-15T03:21:39.619Z,33.95
2019-06-15T03:24:05.784Z,34.15
2019-06-15T03:26:32.068Z,34.07
2019-06-15T03:28:58.259Z,32.91
2019-06-15T03:31:24.515Z,32.37
2019-06-15T03:33:50.739Z,32.27
2019-06-15T03:36:17.364Z,33.39
2019-06-15T03:38:43.524Z,34.73
2019-06-15T03:41:09.736Z,34.14
2019-06-15T03:43:35.911Z,35.03
2019-06-15T03:46:02.077Z,33.48
2019-06-15T03:48:28.269Z,32.46
2019-06-15T03:50:54.471Z,32.17
2019-06-15T03:53:20.657Z,29.96
2019-06-15T03:55:46.894Z,26.42
2019-06-15T03:58:13.089Z,27.53
2019-06-15T04:00:45.301Z,27.66
2019-06-15T04:03:11.503Z,25.47
2019-06-15T04:05:37.681Z,24.38
2019-06-15T04:08:03.854Z,23.07
2019-06-15T04:10:30.058Z,23.36
2019-06-15T04:12:56.247Z,22.56
2019-06-15T04:15:22.407Z,20.83
2019-06-15T04:17:48.626Z,19.79
2019-06-15T04:20:14.819Z,19.79
2019-06-15T04:22:41.044Z,19.87
2019-06-15T04:25:07.247Z,18.76
2019-06-15T04:27:33.427Z,23.85
2019-06-15T04:29:59.595Z,28.49
2019-06-15T04:32:25.810Z,29.99
2019-06-15T04:34:51.990Z,29.14
2019-06-15T04:37:18.167Z,31.51
2019-06-15T04:39:44.356Z,30.50
2019-06-15T04:42:10.536Z,27.23
2019-06-15T04:44:36.685Z,22.05
2019-06-15T04:47:02.900Z,19.45
2019-06-15T04:49:29.083Z,19.11
2019-06-15T04:51:55.257Z,19.95
2019-06-15T04:54:21.602Z,21.18
2019-06-15T04:56:50.882Z,20.76
2019-06-15T04:59:15.858Z,22.83
2019-06-15T05:01:42.062Z,23.36
2019-06-15T05:04:08.247Z,21.56
2019-06-15T05:06:36.335Z,21.09
2019-06-15T05:09:04.562Z,20.97
2019-06-15T05:11:30.741Z,19.47
2019-06-15T05:13:57.009Z,19.32
2019-06-15T05:16:23.204Z,20.73
2019-06-15T05:18:49.394Z,19.25
2019-06-15T05:21:15.575Z,17.58
2019-06-15T05:23:41.762Z,19.62
2019-06-15T05:26:07.927Z,18.69
2019-06-15T05:28:34.150Z,17.55
2019-06-15T05:31:00.314Z,19.92
2019-06-15T05:33:26.512Z,21.41
2019-06-15T05:35:52.708Z,22.76
2019-06-15T05:38:18.903Z,23.32
2019-06-15T05:40:45.073Z,20.76
2019-06-15T05:43:11.367Z,19.50
2019-06-15T05:45:37.693Z,19.47
2019-06-15T05:48:03.909Z,20.45
2019-06-15T05:50:30.096Z,19.35
2019-06-15T05:52:56.290Z,21.17
2019-06-15T05:55:22.504Z,21.00
2019-06-15T05:57:48.783Z,19.24
2019-06-15T06:00:16.886Z,18.97
2019-06-15T06:02:43.068Z,19.54
2019-06-15T06:05:10.653Z,20.05
2019-06-15T06:07:36.970Z,19.10
2019-06-15T06:10:10.801Z,17.82
2019-06-15T06:12:38.021Z,18.53
2019-06-15T06:15:05.714Z,21.10
2019-06-15T06:17:32.013Z,21.93
2019-06-15T06:19:58.292Z,19.38
2019-06-15T06:22:24.597Z,17.52
2019-06-15T06:24:50.859Z,17.94
2019-06-15T06:27:17.146Z,17.24
2019-06-15T06:29:43.450Z,18.99
2019-06-15T06:32:09.765Z,20.75
2019-06-15T06:34:36.042Z,22.67
2019-06-15T06:37:02.794Z,22.69
2019-06-15T06:39:29.060Z,20.50
2019-06-15T06:41:55.361Z,22.28
2019-06-15T06:44:21.689Z,22.33
2019-06-15T06:46:47.962Z,24.47
2019-06-15T06:49:14.246Z,25.38
2019-06-15T06:51:40.559Z,25.50
2019-06-15T06:54:06.842Z,24.00
2019-06-15T06:56:33.186Z,21.34
2019-06-15T06:58:59.511Z,20.36
2019-06-15T07:01:25.787Z,19.98
2019-06-15T07:03:52.166Z,22.29
2019-06-15T07:06:18.487Z,21.23
2019-06-15T07:08:47.931Z,19.39
2019-06-15T07:11:12.941Z,17.77
2019-06-15T07:13:39.245Z,17.36
2019-06-15T07:16:05.521Z,17.71
2019-06-15T07:18:31.806Z,18.50
2019-06-15T07:20:58.121Z,18.72
2019-06-15T07:23:24.387Z,17.87
2019-06-15T07:25:50.675Z,20.57
2019-06-15T07:28:17.278Z,21.60
2019-06-15T07:30:43.559Z,23.23
2019-06-15T07:33:09.845Z,22.20
2019-06-15T07:35:36.145Z,22.41
2019-06-15T07:38:02.418Z,22.22
2019-06-15T07:40:28.706Z,22.73
2019-06-15T07:42:55.132Z,22.99
2019-06-15T07:45:21.396Z,22.22
2019-06-15T07:47:48.707Z,23.04
2019-06-15T07:50:15.043Z,20.84
2019-06-15T07:52:41.306Z,19.56
2019-06-15T07:55:07.999Z,19.38
2019-06-15T07:57:34.456Z,21.34
2019-06-15T08:00:03.376Z,23.75
2019-06-15T08:02:29.654Z,23.71
2019-06-15T08:04:56.004Z,23.32
2019-06-15T08:07:22.268Z,23.08
2019-06-15T08:09:48.549Z,22.74
2019-06-15T08:12:14.875Z,19.88
2019-06-15T08:14:41.142Z,19.93
2019-06-15T08:17:07.414Z,22.25
2019-06-15T08:19:33.745Z,22.28
2019-06-15T08:22:02.012Z,22.69
2019-06-15T08:24:28.294Z,22.13
2019-06-15T08:26:54.630Z,21.71
2019-06-15T08:32:09.789Z,22.34
2019-06-15T08:34:36.124Z,23.25
2019-06-15T08:37:02.415Z,22.17
2019-06-15T08:39:28.729Z,20.85
2019-06-15T08:41:56.949Z,22.12
2019-06-15T08:44:23.626Z,20.48
2019-06-15T08:46:53.007Z,20.20
2019-06-15T08:49:19.284Z,20.63
2019-06-15T08:51:45.464Z,20.58
2019-06-15T08:54:11.682Z,20.84
2019-06-15T08:56:37.877Z,21.61
2019-06-15T08:59:04.029Z,20.66
2019-06-15T09:01:30.249Z,20.81
2019-06-15T09:04:01.576Z,20.26
2019-06-15T09:06:27.734Z,21.98
2019-06-15T09:08:54.964Z,22.22
2019-06-15T09:11:21.147Z,21.55
2019-06-15T09:13:47.291Z,21.04
2019-06-15T09:16:13.489Z,21.75
2019-06-15T09:18:39.672Z,20.15
2019-06-15T09:21:05.852Z,19.90
2019-06-15T09:23:32.038Z,22.17
2019-06-15T09:25:58.223Z,22.50
2019-06-15T09:28:24.389Z,23.36
2019-06-15T09:30:50.600Z,23.17
2019-06-15T09:33:16.875Z,22.80
2019-06-15T09:35:43.145Z,22.92
2019-06-15T09:38:09.606Z,21.42
2019-06-15T09:40:35.854Z,21.95
2019-06-15T09:43:02.032Z,22.53
2019-06-15T09:45:28.317Z,21.36
2019-06-15T09:47:54.491Z,22.73
2019-06-15T09:50:20.682Z,22.57
2019-06-15T09:52:47.171Z,23.44
2019-06-15T09:55:13.707Z,22.34
2019-06-15T09:57:40.018Z,22.46
2019-06-15T10:00:07.629Z,22.97
2019-06-15T10:02:33.809Z,20.79
2019-06-15T10:05:00.083Z,19.72
2019-06-15T10:07:26.286Z,18.52
2019-06-15T10:09:52.566Z,19.14
2019-06-15T10:12:18.779Z,19.36
2019-06-15T10:14:44.957Z,20.25
2019-06-15T10:17:11.356Z,21.12
2019-06-15T10:19:37.505Z,20.73
2019-06-15T10:22:03.709Z,21.66
2019-06-15T10:24:29.849Z,21.53
2019-06-15T10:26:56.024Z,21.45
2019-06-15T10:29:22.223Z,22.51
2019-06-15T10:31:48.482Z,23.76
2019-06-15T10:34:14.646Z,19.89
2019-06-15T10:36:40.843Z,20.62
2019-06-15T10:39:07.203Z,20.42
2019-06-15T10:41:33.359Z,19.74
2019-06-15T10:43:59.556Z,19.85
2019-06-15T10:46:25.709Z,22.44
2019-06-15T10:48:51.871Z,21.38
2019-06-15T10:51:18.070Z,20.60
2019-06-15T10:53:44.353Z,19.21
2019-06-15T10:56:10.516Z,19.90
2019-06-15T10:58:36.815Z,19.40
2019-06-15T11:01:03.313Z,20.29
2019-06-15T11:03:29.908Z,23.26
2019-06-15T11:05:56.089Z,22.16
2019-06-15T11:08:22.285Z,21.54
2019-06-15T11:10:52.016Z,21.39
2019-06-15T11:13:18.208Z,20.88
2019-06-15T11:15:44.877Z,20.50
2019-06-15T11:18:11.052Z,18.66
2019-06-15T11:20:37.309Z,20.29
2019-06-15T11:23:03.549Z,20.25
2019-06-15T11:25:30.108Z,21.04
2019-06-15T11:27:56.294Z,19.41
2019-06-15T11:30:23.378Z,19.19
2019-06-15T11:32:49.551Z,21.77
2019-06-15T11:35:15.736Z,23.20
2019-06-15T11:37:41.895Z,22.73
2019-06-15T11:40:08.560Z,21.81
2019-06-15T11:42:34.768Z,21.07
2019-06-15T11:45:00.934Z,19.87
2019-06-15T11:47:27.096Z,19.79
2019-06-15T11:49:53.288Z,21.13
2019-06-15T11:52:19.451Z,20.70
2019-06-15T11:54:45.625Z,21.08
2019-06-15T11:57:11.818Z,21.95
2019-06-15T11:59:37.979Z,20.69
2019-06-15T12:02:04.190Z,20.83
2019-06-15T12:04:30.389Z,21.25
2019-06-15T12:06:56.557Z,20.72
2019-06-15T12:09:22.714Z,20.54
2019-06-15T12:11:48.899Z,19.88
2019-06-15T12:14:15.056Z,20.46
2019-06-15T12:16:41.232Z,17.83
2019-06-15T12:19:07.530Z,15.85
2019-06-15T12:21:33.789Z,18.62
2019-06-15T12:23:59.947Z,18.95
2019-06-15T12:26:26.140Z,18.84
2019-06-15T12:28:52.301Z,19.07
2019-06-15T12:31:18.462Z,20.33
2019-06-15T12:33:44.659Z,19.86
2019-06-15T12:36:19.168Z,18.03
2019-06-15T12:38:39.328Z,18.12
2019-06-15T12:41:05.529Z,18.60
2019-06-15T12:43:31.737Z,17.79
2019-06-15T12:45:58.091Z,18.98
2019-06-15T12:48:24.283Z,17.87
2019-06-15T12:50:50.447Z,18.88
2019-06-15T12:53:16.605Z,17.34
2019-06-15T12:55:42.904Z,16.69
2019-06-15T12:58:09.071Z,18.17
2019-06-15T13:00:36.740Z,18.73
2019-06-15T13:03:02.993Z,17.51
2019-06-15T13:05:29.138Z,18.08
2019-06-15T13:07:55.297Z,18.61
2019-06-15T13:10:21.929Z,18.91
2019-06-15T13:12:48.105Z,18.71
2019-06-15T13:15:14.780Z,18.90
2019-06-15T13:17:40.983Z,18.90
2019-06-15T13:20:07.529Z,17.54
2019-06-15T13:22:33.746Z,18.42
2019-06-15T13:24:59.985Z,19.09
2019-06-15T13:27:26.159Z,19.46
2019-06-15T13:29:52.412Z,19.89
2019-06-15T13:32:18.614Z,18.53
2019-06-15T13:34:44.796Z,18.92
2019-06-15T13:37:10.953Z,17.51
2019-06-15T13:39:37.150Z,18.71
2019-06-15T13:42:03.307Z,18.25
2019-06-15T13:44:29.483Z,18.07
2019-06-15T13:46:55.724Z,18.69
2019-06-15T13:49:21.962Z,18.71
2019-06-15T13:51:48.128Z,18.51
2019-06-15T13:54:14.446Z,18.62
2019-06-15T13:56:40.726Z,19.33
2019-06-15T13:59:06.883Z,19.14
2019-06-15T14:01:34.334Z,20.08
2019-06-15T14:04:01.150Z,20.28
2019-06-15T14:06:27.309Z,18.66
2019-06-15T14:08:53.495Z,19.19
2019-06-15T14:11:19.653Z,18.71
2019-06-15T14:13:45.809Z,19.86
2019-06-15T14:16:12.013Z,20.58
2019-06-15T14:18:38.269Z,20.89
2019-06-15T14:21:04.434Z,19.36
2019-06-15T14:23:30.615Z,20.18
2019-06-15T14:25:56.811Z,18.50
2019-06-15T14:28:22.963Z,19.02
2019-06-15T14:30:49.199Z,18.35
2019-06-15T14:33:15.689Z,17.56
2019-06-15T14:35:43.939Z,18.63
2019-06-15T14:38:10.068Z,18.10
2019-06-15T14:40:37.529Z,18.24
2019-06-15T14:43:03.718Z,17.88
2019-06-15T14:45:30.240Z,18.42
2019-06-15T14:47:56.411Z,18.01
2019-06-15T14:50:22.575Z,17.92
2019-06-15T14:52:48.776Z,18.40
2019-06-15T14:55:15.256Z,18.46
2019-06-15T14:57:41.506Z,17.98
2019-06-15T15:00:09.254Z,18.95
2019-06-15T15:02:37.163Z,19.43
2019-06-15T15:05:06.910Z,19.02
2019-06-15T15:07:33.594Z,18.98
2019-06-15T15:09:59.849Z,19.24
2019-06-15T15:12:26.805Z,18.31
2019-06-15T15:14:53.213Z,18.70
2019-06-15T15:17:19.569Z,17.96
2019-06-15T15:19:46.649Z,19.09
2019-06-15T15:22:13.050Z,18.78
2019-06-15T15:24:39.224Z,19.70
2019-06-15T15:27:05.488Z,19.24
2019-06-15T15:29:31.793Z,19.29
2019-06-15T15:31:58.071Z,18.78
2019-06-15T15:34:26.112Z,18.24
2019-06-15T15:36:52.541Z,18.18
2019-06-15T15:39:19.038Z,18.61
2019-06-15T15:41:47.039Z,18.79
2019-06-15T15:44:13.305Z,18.43
2019-06-15T15:46:39.459Z,17.52
2019-06-15T15:49:07.012Z,17.73
2019-06-15T15:51:33.302Z,18.10
2019-06-15T15:53:59.574Z,18.83
2019-06-15T15:56:27.230Z,20.15
2019-06-15T15:58:56.099Z,20.15
2019-06-15T16:01:21.873Z,19.07
2019-06-15T16:03:48.146Z,20.43
2019-06-15T16:06:14.386Z,20.59
2019-06-15T16:08:40.551Z,21.64
2019-06-15T16:11:06.709Z,21.72
2019-06-15T16:13:32.905Z,21.78
2019-06-15T16:15:59.056Z,21.49
2019-06-15T16:18:25.226Z,22.60
2019-06-15T16:20:51.422Z,21.51
2019-06-15T16:23:17.590Z,22.25
2019-06-15T16:25:46.062Z,23.03
2019-06-15T16:28:11.847Z,22.13
2019-06-15T16:31:00.443Z,22.77
2019-06-15T16:33:07.663Z,23.26
2019-06-15T16:35:36.170Z,22.44
2019-06-15T16:38:02.549Z,22.03
2019-06-15T16:40:32.523Z,22.75
2019-06-15T16:42:58.868Z,23.77
2019-06-15T16:45:26.659Z,24.29
2019-06-15T16:47:52.967Z,24.87
2019-06-15T16:50:19.149Z,23.22
2019-06-15T16:52:46.902Z,22.30
2019-06-15T16:55:13.271Z,21.87
2019-06-15T16:57:39.461Z,21.37
2019-06-15T17:00:32.883Z,20.75
2019-06-15T17:02:59.218Z,20.15
2019-06-15T17:05:27.452Z,20.50
2019-06-15T17:07:53.574Z,20.36
2019-06-15T17:10:29.381Z,21.09
2019-06-15T17:12:56.158Z,21.04
2019-06-15T17:15:22.410Z,22.08
2019-06-15T17:17:48.633Z,23.10
2019-06-15T17:20:18.412Z,23.41
2019-06-15T17:22:47.119Z,23.16
2019-06-15T17:25:12.824Z,23.54
2019-06-15T17:27:39.017Z,30.84
2019-06-15T17:30:07.045Z,33.01
2019-06-15T17:32:33.711Z,37.72
2019-06-15T17:34:59.979Z,42.18
2019-06-15T17:37:26.731Z,41.92
2019-06-15T17:39:55.871Z,39.47
2019-06-15T17:42:21.713Z,39.67
2019-06-15T17:44:47.875Z,38.41
2019-06-15T17:47:16.776Z,38.71
2019-06-15T17:49:42.179Z,40.65
2019-06-15T17:52:08.326Z,45.51
2019-06-15T17:54:37.212Z,49.19
2019-06-15T17:57:02.639Z,46.60
2019-06-15T17:59:29.391Z,47.52
2019-06-15T18:01:55.716Z,45.69
2019-06-15T18:04:21.890Z,41.56
2019-06-15T18:06:48.043Z,46.00
2019-06-15T18:09:16.816Z,44.33
2019-06-15T18:11:42.328Z,46.90
2019-06-15T18:14:08.482Z,48.96
2019-06-15T18:16:36.928Z,48.17
2019-06-15T18:19:02.775Z,47.22
2019-06-15T18:21:28.937Z,45.22
2019-06-15T18:23:57.339Z,41.50
2019-06-15T18:26:23.311Z,40.16
2019-06-15T18:28:49.481Z,41.85
2019-06-15T18:31:16.317Z,41.22
2019-06-15T18:33:42.841Z,42.92
2019-06-15T18:36:09.021Z,42.73
2019-06-15T18:38:37.160Z,41.84
2019-06-15T18:41:03.576Z,41.53
2019-06-15T18:43:29.757Z,42.81
2019-06-15T18:45:56.781Z,41.98
2019-06-15T18:48:23.221Z,42.24
2019-06-15T18:50:49.401Z,42.54
2019-06-15T18:53:15.580Z,42.56
2019-06-15T18:55:41.757Z,44.04
2019-06-15T18:58:07.930Z,43.42
2019-06-15T19:00:36.826Z,43.51
2019-06-15T19:03:02.200Z,43.92
2019-06-15T19:05:28.369Z,42.94
2019-06-15T19:07:56.604Z,43.40
2019-06-15T19:10:36.536Z,41.76
2019-06-15T19:13:03.825Z,43.43
2019-06-15T19:15:30.100Z,42.72
2019-06-15T19:17:56.262Z,45.00
2019-06-15T19:20:26.486Z,45.28
2019-06-15T19:22:52.429Z,47.08
2019-06-15T19:25:18.594Z,46.24
2019-06-15T19:27:44.813Z,46.88
2019-06-15T19:30:10.970Z,46.65
2019-06-15T19:32:37.151Z,46.68
2019-06-15T19:35:29.158Z,48.34
2019-06-15T19:37:56.693Z,46.67
2019-06-15T19:40:23.257Z,47.17
2019-06-15T19:42:49.483Z,47.15
2019-06-15T19:45:17.737Z,45.89
2019-06-15T19:47:43.991Z,48.81
2019-06-15T19:50:12.554Z,48.19
2019-06-15T19:52:38.773Z,49.02
2019-06-15T19:55:06.712Z,46.31
2019-06-15T19:57:33.165Z,45.84
2019-06-15T19:59:59.307Z,45.61
2019-06-15T20:02:26.998Z,43.89
2019-06-15T20:05:00.259Z,44.93
2019-06-15T20:07:21.561Z,45.46
2019-06-15T20:09:47.720Z,46.21
2019-06-15T20:12:20.879Z,46.99
2019-06-15T20:14:42.049Z,49.13
2019-06-15T20:17:08.213Z,51.07
2019-06-15T20:19:37.527Z,50.43
2019-06-15T20:22:02.877Z,47.77
2019-06-15T20:24:29.050Z,48.64
2019-06-15T20:26:56.146Z,45.30
2019-06-15T20:29:23.302Z,45.03
2019-06-15T20:31:49.479Z,43.52
2019-06-15T20:34:16.582Z,43.64
2019-06-15T20:36:42.831Z,45.02
2019-06-15T20:39:09.007Z,42.58
2019-06-15T20:41:36.457Z,41.76
2019-06-15T20:44:03.171Z,41.71
2019-06-15T20:46:29.325Z,39.89
2019-06-15T20:48:56.529Z,38.20
2019-06-15T20:51:22.893Z,39.26
2019-06-15T20:53:49.067Z,40.32
2019-06-15T20:56:17.051Z,40.77
2019-06-15T20:58:43.332Z,39.96
2019-06-15T21:01:09.484Z,39.49
2019-06-15T21:03:36.746Z,39.62
2019-06-15T21:06:06.569Z,38.46
2019-06-15T21:08:31.362Z,38.77
2019-06-15T21:10:57.570Z,38.63
2019-06-15T21:13:26.223Z,38.64
2019-06-15T21:15:51.921Z,40.47
2019-06-15T21:18:18.141Z,40.31
2019-06-15T21:20:46.816Z,39.88
2019-06-15T21:23:12.379Z,42.31
2019-06-15T21:25:38.564Z,42.42
2019-06-15T21:28:06.702Z,43.19
2019-06-15T21:30:32.923Z,43.95
2019-06-15T21:32:59.241Z,43.47
2019-06-15T21:35:26.829Z,41.73
2019-06-15T21:37:56.955Z,42.64
2019-06-15T21:40:22.811Z,41.09
2019-06-15T21:42:49.431Z,41.21
2019-06-15T21:45:15.811Z,40.64
2019-06-15T21:47:42.024Z,41.59
2019-06-15T21:50:11.212Z,39.65
2019-06-15T21:52:37.501Z,41.31
2019-06-15T21:55:06.948Z,41.55
2019-06-15T21:57:36.555Z,42.12
2019-06-15T22:00:17.175Z,38.93
2019-06-15T22:02:42.260Z,37.91
2019-06-15T22:05:09.038Z,38.03
2019-06-15T22:07:36.797Z,36.93
2019-06-15T22:10:28.535Z,36.76
2019-06-15T22:12:57.103Z,39.26
2019-06-15T22:15:22.909Z,41.44
2019-06-15T22:17:53.067Z,40.25
2019-06-15T22:20:19.267Z,39.39
2019-06-15T22:22:47.090Z,40.31
2019-06-15T22:25:15.828Z,40.57
2019-06-15T22:27:41.414Z,40.04
2019-06-15T22:30:09.764Z,40.59
2019-06-15T22:32:36.497Z,41.49
2019-06-15T22:35:07.130Z,40.71
2019-06-15T22:37:35.807Z,39.75
2019-06-15T22:40:01.982Z,39.31
2019-06-15T22:42:28.743Z,38.45
2019-06-15T22:44:56.799Z,39.83
2019-06-15T22:47:22.983Z,40.87
2019-06-15T22:49:49.310Z,40.74
2019-06-15T22:52:17.099Z,41.18
2019-06-15T22:54:43.542Z,43.25
2019-06-15T22:57:09.762Z,42.59
2019-06-15T22:59:37.552Z,41.53
2019-06-15T23:02:03.729Z,40.62
2019-06-15T23:04:29.947Z,41.10
2019-06-15T23:06:56.622Z,41.10
2019-06-15T23:09:23.088Z,39.77
2019-06-15T23:11:49.279Z,39.60
2019-06-15T23:14:17.208Z,39.31
2019-06-15T23:16:43.521Z,41.22
2019-06-15T23:19:09.735Z,40.45
2019-06-15T23:21:37.352Z,39.21
2019-06-15T23:24:03.656Z,38.73
2019-06-15T23:26:29.880Z,40.55
2019-06-15T23:28:56.572Z,39.55
2019-06-15T23:31:23.027Z,38.03
2019-06-15T23:33:49.227Z,38.54
2019-06-15T23:36:17.287Z,39.32
2019-06-15T23:38:43.458Z,37.33
2019-06-15T23:41:09.798Z,38.39
2019-06-15T23:43:36.272Z,37.50
2019-06-15T23:46:02.747Z,37.61
2019-06-15T23:48:28.960Z,38.58
2019-06-15T23:50:56.964Z,38.19
2019-06-15T23:53:23.198Z,38.62
2019-06-15T23:55:49.425Z,38.84
2019-06-15T23:58:17.583Z,39.36
